Time;durP1;ratioP1;P1;durP2;ratioP2;P2;SDS_P1;SDS_P2;PMS_P1;PMS_P2;Temp;Humidity;BMP_temperature;BMP_pressure;BME280_temperature;BME280_humidity;BME280_pressure;Samples;Min_cycle;Max_cycle;Signal;HPM_P1;HPM_P2
2021/05/28 00:01:41;;;;;;;22.33;11.57;;;;;;;7.88;100.00;101710.97;5014972;28;20049;-58
2021/05/28 00:04:09;;;;;;;17.95;9.95;;;;;;;7.89;100.00;101708.19;5021487;28;20060;-57
2021/05/28 00:06:36;;;;;;;20.85;10.10;;;;;;;7.90;100.00;101704.56;5017586;28;20078;-57
2021/05/28 00:09:05;;;;;;;18.60;9.63;;;;;;;7.85;100.00;101711.22;5015216;28;20053;-58
2021/05/28 00:11:32;;;;;;;16.90;9.50;;;;;;;7.69;100.00;101707.13;5018621;28;20091;-57
2021/05/28 00:14:00;;;;;;;17.75;8.80;;;;;;;7.66;100.00;101703.91;5019080;28;20077;-57
2021/05/28 00:16:27;;;;;;;13.05;8.20;;;;;;;7.40;100.00;101709.47;5021257;28;20042;-57
2021/05/28 00:18:56;;;;;;;17.13;9.20;;;;;;;7.23;100.00;101708.13;5017592;28;20049;-57
2021/05/28 00:21:23;;;;;;;23.67;11.63;;;;;;;7.14;100.00;101712.31;5012727;28;20049;-57
2021/05/28 00:23:51;;;;;;;18.02;9.80;;;;;;;7.18;100.00;101718.25;5016977;28;20048;-56
2021/05/28 00:26:18;;;;;;;20.70;10.20;;;;;;;7.20;100.00;101717.19;5016121;28;20251;-57
2021/05/28 00:28:49;;;;;;;14.52;8.00;;;;;;;7.13;100.00;101720.41;5016687;28;20103;-57
2021/05/28 00:31:16;;;;;;;14.65;7.78;;;;;;;7.13;100.00;101728.38;5014737;28;20068;-56
2021/05/28 00:33:44;;;;;;;15.88;8.93;;;;;;;7.20;100.00;101727.81;5014570;28;20099;-60
2021/05/28 00:36:12;;;;;;;19.50;9.07;;;;;;;7.03;100.00;101730.91;5019275;28;20042;-57
2021/05/28 00:38:39;;;;;;;19.85;9.23;;;;;;;7.02;100.00;101731.88;5014477;28;20048;-57
2021/05/28 00:41:07;;;;;;;21.67;8.75;;;;;;;6.98;100.00;101727.75;5019658;28;20092;-57
2021/05/28 00:43:34;;;;;;;21.98;9.05;;;;;;;6.95;100.00;101725.34;5021751;28;20041;-57
2021/05/28 00:46:02;;;;;;;14.60;8.98;;;;;;;6.93;100.00;101732.56;5018877;28;20334;-57
2021/05/28 00:48:29;;;;;;;15.70;7.80;;;;;;;6.70;100.00;101724.53;5016024;28;20232;-59
2021/05/28 00:50:56;;;;;;;17.27;9.48;;;;;;;6.71;100.00;101726.25;5013556;28;20046;-59
2021/05/28 00:53:25;;;;;;;18.25;8.77;;;;;;;6.82;100.00;101728.94;5018970;28;20072;-59
2021/05/28 00:55:53;;;;;;;18.58;8.65;;;;;;;6.68;100.00;101729.97;5021725;28;20091;-60
2021/05/28 00:58:20;;;;;;;24.17;11.35;;;;;;;6.65;100.00;101738.16;5018470;28;20052;-60
2021/05/28 01:00:49;;;;;;;19.02;9.45;;;;;;;6.54;100.00;101731.00;5021709;28;20381;-59
2021/05/28 01:03:16;;;;;;;23.05;11.85;;;;;;;6.38;100.00;101741.06;5018103;28;20096;-60
2021/05/28 01:05:44;;;;;;;21.73;10.73;;;;;;;6.22;100.00;101736.03;5021604;28;20142;-60
2021/05/28 01:08:11;;;;;;;23.67;11.55;;;;;;;6.37;100.00;101736.72;5020723;28;20076;-60
2021/05/28 01:10:40;;;;;;;24.23;11.82;;;;;;;6.41;100.00;101735.53;5018769;28;20100;-59
2021/05/28 01:13:09;;;;;;;26.75;11.48;;;;;;;6.43;100.00;101738.06;5021489;28;20045;-59
2021/05/28 01:15:36;;;;;;;26.38;12.05;;;;;;;6.38;100.00;101735.75;5018546;28;20088;-60
2021/05/28 01:18:04;;;;;;;29.63;13.57;;;;;;;6.36;100.00;101740.31;5015662;28;20339;-59
2021/05/28 01:20:32;;;;;;;31.08;13.10;;;;;;;6.36;100.00;101741.19;5017237;28;20049;-59
2021/05/28 01:23:02;;;;;;;29.45;12.32;;;;;;;6.38;100.00;101735.75;5021860;28;20072;-60
2021/05/28 01:25:30;;;;;;;31.60;11.98;;;;;;;6.37;100.00;101734.91;5023127;28;20037;-60
2021/05/28 01:27:58;;;;;;;25.95;11.98;;;;;;;6.33;100.00;101733.44;5018927;28;20100;-60
2021/05/28 01:30:26;;;;;;;28.50;11.60;;;;;;;6.26;100.00;101739.31;5021554;28;20064;-60
2021/05/28 01:32:54;;;;;;;21.02;10.68;;;;;;;6.15;100.00;101733.00;5019561;28;20049;-59
2021/05/28 01:35:22;;;;;;;20.02;11.30;;;;;;;6.12;100.00;101732.34;5016310;28;20037;-59
2021/05/28 01:37:50;;;;;;;21.95;11.75;;;;;;;5.89;100.00;101745.44;5016936;28;20125;-59
2021/05/28 01:40:20;;;;;;;26.73;12.70;;;;;;;5.88;100.00;101745.56;5017059;28;20208;-60
2021/05/28 01:42:49;;;;;;;20.27;10.82;;;;;;;5.84;100.00;101737.81;5017285;28;20042;-59
2021/05/28 01:45:17;;;;;;;28.67;11.75;;;;;;;5.91;100.00;101748.84;5020136;28;20496;-59
2021/05/28 01:47:44;;;;;;;33.08;13.07;;;;;;;5.94;100.00;101735.38;5020968;28;20120;-59
2021/05/28 01:50:12;;;;;;;30.05;13.02;;;;;;;5.88;100.00;101742.91;5020959;28;20083;-60
2021/05/28 01:52:40;;;;;;;31.20;13.10;;;;;;;5.76;100.00;101740.16;5017144;28;20092;-59
2021/05/28 01:55:10;;;;;;;26.15;12.38;;;;;;;5.65;100.00;101734.78;5021325;28;20493;-59
2021/05/28 01:57:39;;;;;;;31.70;13.65;;;;;;;5.64;100.00;101733.94;5020571;28;20384;-59
2021/05/28 02:00:08;;;;;;;32.42;13.30;;;;;;;5.67;100.00;101735.50;5013894;28;20186;-60
2021/05/28 02:02:36;;;;;;;31.90;13.35;;;;;;;5.64;100.00;101735.72;5018661;28;20087;-60
2021/05/28 02:05:06;;;;;;;30.48;12.52;;;;;;;5.46;100.00;101733.44;5020413;28;20053;-60
2021/05/28 02:07:33;;;;;;;28.40;12.38;;;;;;;5.69;100.00;101737.09;5015382;28;20073;-59
2021/05/28 02:10:01;;;;;;;27.10;13.05;;;;;;;5.93;100.00;101730.16;5020494;28;20057;-57
2021/05/28 02:12:28;;;;;;;36.88;15.27;;;;;;;6.13;100.00;101726.09;5018998;28;20392;-60
2021/05/28 02:14:57;;;;;;;42.80;15.98;;;;;;;6.26;100.00;101728.69;5020436;28;20371;-60
2021/05/28 02:17:24;;;;;;;39.50;17.25;;;;;;;6.19;100.00;101730.94;5016891;28;20499;-59
2021/05/28 02:19:54;;;;;;;46.15;18.15;;;;;;;6.17;100.00;101732.88;5019687;28;20099;-60
2021/05/28 02:22:22;;;;;;;48.72;17.83;;;;;;;6.26;100.00;101726.88;5016924;28;20045;-60
2021/05/28 02:24:49;;;;;;;40.88;17.98;;;;;;;6.30;100.00;101727.53;5019708;28;20056;-60
2021/05/28 02:27:17;;;;;;;45.72;17.30;;;;;;;6.27;100.00;101730.41;5022257;28;20041;-59
2021/05/28 02:29:44;;;;;;;50.65;19.08;;;;;;;6.36;100.00;101732.38;5018452;28;20079;-59
2021/05/28 02:32:12;;;;;;;24.88;13.45;;;;;;;6.28;100.00;101742.69;5017711;28;20434;-56
2021/05/28 02:34:40;;;;;;;29.73;13.25;;;;;;;6.13;100.00;101740.19;5015469;28;20472;-57
2021/05/28 02:37:07;;;;;;;30.45;13.15;;;;;;;6.03;100.00;101741.84;5019693;28;20046;-57
2021/05/28 02:39:35;;;;;;;24.00;12.80;;;;;;;6.01;100.00;101741.06;5019121;28;20057;-60
2021/05/28 02:42:02;;;;;;;18.48;10.40;;;;;;;5.98;100.00;101749.25;5017916;28;20049;-58
2021/05/28 02:44:30;;;;;;;18.92;10.07;;;;;;;5.99;100.00;101745.66;5017535;28;20046;-58
2021/05/28 02:46:57;;;;;;;19.05;10.10;;;;;;;5.88;100.00;101742.91;5024063;28;20053;-56
2021/05/28 02:49:25;;;;;;;31.73;10.45;;;;;;;5.63;100.00;101752.59;5019958;28;20394;-58
2021/05/28 02:51:53;;;;;;;22.77;11.07;;;;;;;5.57;100.00;101753.00;5015863;28;20357;-57
2021/05/28 02:54:20;;;;;;;25.67;11.30;;;;;;;5.45;100.00;101744.13;5018803;28;20045;-57
2021/05/28 02:56:48;;;;;;;24.27;11.25;;;;;;;5.28;100.00;101748.78;5017266;28;20053;-58
2021/05/28 02:59:15;;;;;;;26.88;11.80;;;;;;;5.26;100.00;101752.50;5017289;28;20488;-56
2021/05/28 03:01:42;;;;;;;30.90;9.93;;;;;;;5.23;100.00;101752.69;5017050;28;20049;-56
2021/05/28 03:04:10;;;;;;;33.58;13.20;;;;;;;5.35;100.00;101759.81;5018943;28;20058;-56
2021/05/28 03:06:38;;;;;;;24.63;11.95;;;;;;;5.42;100.00;101747.84;5017788;28;20290;-57
2021/05/28 03:09:06;;;;;;;26.35;11.80;;;;;;;5.46;100.00;101749.31;5016999;28;20096;-57
2021/05/28 03:11:34;;;;;;;44.67;17.45;;;;;;;5.60;100.00;101742.19;5018615;28;20045;-60
2021/05/28 03:14:02;;;;;;;37.63;16.88;;;;;;;5.85;100.00;101747.47;5016159;28;20117;-59
2021/05/28 03:16:32;;;;;;;50.50;19.95;;;;;;;6.08;100.00;101747.66;5019522;28;20332;-60
2021/05/28 03:19:02;;;;;;;57.50;20.85;;;;;;;6.23;100.00;101745.69;5019833;28;20384;-61
2021/05/28 03:21:39;;;;;;;55.25;21.38;;;;;;;6.28;100.00;101746.22;5013944;28;20049;-60
2021/05/28 03:24:08;;;;;;;50.42;20.13;;;;;;;6.26;100.00;101752.56;5018916;28;20444;-60
2021/05/28 03:26:35;;;;;;;47.42;19.15;;;;;;;6.38;100.00;101754.34;5018631;28;20053;-60
2021/05/28 03:29:06;;;;;;;46.50;19.67;;;;;;;6.45;100.00;101747.63;5018822;28;20346;-60
2021/05/28 03:31:33;;;;;;;44.70;20.02;;;;;;;6.47;100.00;101751.00;5016311;28;20037;-61
2021/05/28 03:34:00;;;;;;;45.85;19.05;;;;;;;6.49;100.00;101759.69;5015692;28;20057;-60
2021/05/28 03:36:28;;;;;;;39.03;19.05;;;;;;;6.43;100.00;101756.66;5017375;28;20049;-61
2021/05/28 03:38:57;;;;;;;32.40;15.70;;;;;;;6.23;100.00;101766.06;5017794;28;20053;-60
2021/05/28 03:41:25;;;;;;;25.30;12.38;;;;;;;6.08;100.00;101770.66;5016000;28;20114;-60
2021/05/28 03:43:53;;;;;;;28.40;14.07;;;;;;;5.66;100.00;101770.94;5016636;28;20049;-60
2021/05/28 03:46:20;;;;;;;28.30;13.43;;;;;;;5.54;100.00;101774.44;5018140;28;20427;-61
2021/05/28 03:48:48;;;;;;;33.92;15.68;;;;;;;5.60;100.00;101774.88;5019236;28;20038;-60
2021/05/28 03:51:15;;;;;;;32.10;14.75;;;;;;;5.75;100.00;101775.56;5017945;28;20041;-64
2021/05/28 03:53:43;;;;;;;36.10;16.42;;;;;;;5.69;100.00;101776.00;5019263;28;20054;-63
2021/05/28 03:56:10;;;;;;;35.53;15.30;;;;;;;5.68;100.00;101776.97;5017864;28;20065;-62
2021/05/28 03:58:38;;;;;;;26.58;12.57;;;;;;;5.59;100.00;101781.09;5013712;28;20213;-61
2021/05/28 04:01:06;;;;;;;26.63;13.25;;;;;;;5.50;100.00;101784.38;5008914;28;20255;-61
2021/05/28 04:03:33;;;;;;;30.95;14.40;;;;;;;5.50;100.00;101782.59;5015674;28;20325;-60
2021/05/28 04:06:00;;;;;;;29.25;13.68;;;;;;;5.61;100.00;101783.66;5015341;28;20049;-61
2021/05/28 04:08:28;;;;;;;24.17;12.55;;;;;;;5.80;100.00;101777.91;5016717;28;20525;-60
2021/05/28 04:10:58;;;;;;;27.77;12.90;;;;;;;5.89;100.00;101781.72;5017531;28;20137;-58
2021/05/28 04:13:29;;;;;;;23.27;11.75;;;;;;;5.91;100.00;101780.66;5019780;28;20057;-60
2021/05/28 04:15:58;;;;;;;26.17;13.32;;;;;;;5.94;100.00;101782.22;5017794;28;20041;-60
2021/05/28 04:18:26;;;;;;;23.90;12.88;;;;;;;5.99;100.00;101788.09;5017707;28;20464;-60
2021/05/28 04:20:53;;;;;;;21.80;11.68;;;;;;;6.18;100.00;101783.16;5015596;28;20042;-60
2021/05/28 04:23:21;;;;;;;21.75;11.75;;;;;;;6.35;100.00;101778.41;5015090;28;20103;-60
2021/05/28 04:25:49;;;;;;;25.35;12.40;;;;;;;6.34;100.00;101782.06;5017162;28;20385;-60
2021/05/28 04:28:17;;;;;;;23.88;10.85;;;;;;;6.51;100.00;101778.16;5019961;28;20266;-60
2021/05/28 04:30:45;;;;;;;19.17;10.10;;;;;;;6.48;100.00;101784.53;5014406;28;20049;-60
2021/05/28 04:33:13;;;;;;;18.13;9.57;;;;;;;6.41;100.00;101785.09;5016604;28;20052;-59
2021/05/28 04:35:40;;;;;;;20.83;9.45;;;;;;;6.30;100.00;101788.53;5016874;28;20053;-60
2021/05/28 04:38:08;;;;;;;16.38;9.68;;;;;;;6.51;100.00;101786.97;5020924;28;20046;-60
2021/05/28 04:40:35;;;;;;;22.98;11.48;;;;;;;6.83;100.00;101790.84;5017065;28;20037;-59
2021/05/28 04:43:03;;;;;;;21.95;11.05;;;;;;;6.93;100.00;101788.34;5016409;28;20127;-60
2021/05/28 04:45:30;;;;;;;22.58;11.23;;;;;;;6.89;100.00;101793.06;5018924;28;20631;-58
2021/05/28 04:47:58;;;;;;;17.70;10.48;;;;;;;7.03;100.00;101799.94;5016554;28;20046;-60
2021/05/28 04:50:31;;;;;;;22.88;11.38;;;;;;;6.98;100.00;101797.66;5013536;28;20042;-60
2021/05/28 04:52:59;;;;;;;19.58;10.82;;;;;;;7.14;100.00;101796.50;5017998;28;20073;-60
2021/05/28 04:55:28;;;;;;;14.75;9.35;;;;;;;7.29;100.00;101805.97;5015346;28;20072;-60
2021/05/28 04:57:55;;;;;;;16.40;9.00;;;;;;;7.33;100.00;101809.22;5017494;28;20123;-60
2021/05/28 05:00:23;;;;;;;16.85;9.50;;;;;;;7.27;100.00;101807.88;5012998;28;20244;-60
2021/05/28 05:02:51;;;;;;;16.45;9.40;;;;;;;7.36;100.00;101803.69;5015195;28;20046;-59
2021/05/28 05:05:19;;;;;;;18.70;10.63;;;;;;;7.22;100.00;101805.56;5015664;28;20369;-60
2021/05/28 05:07:47;;;;;;;25.20;10.30;;;;;;;7.58;100.00;101803.72;5013744;28;20117;-59
2021/05/28 05:10:15;;;;;;;22.92;11.10;;;;;;;7.67;100.00;101802.16;5017337;28;20045;-59
2021/05/28 05:12:42;;;;;;;19.48;10.15;;;;;;;7.63;100.00;101813.16;5019050;28;20044;-59
2021/05/28 05:15:11;;;;;;;17.45;9.95;;;;;;;7.69;100.00;101804.69;5014370;28;20116;-59
2021/05/28 05:17:38;;;;;;;36.20;17.35;;;;;;;8.14;100.00;101809.97;5017721;28;20361;-59
2021/05/28 05:20:07;;;;;;;50.45;24.85;;;;;;;8.68;100.00;101800.31;5007631;28;20092;-58
2021/05/28 05:22:34;;;;;;;45.60;25.00;;;;;;;8.84;100.00;101810.53;5017309;28;20045;-58
2021/05/28 05:25:04;;;;;;;45.80;22.25;;;;;;;9.00;100.00;101809.28;5013016;28;20041;-58
2021/05/28 05:27:32;;;;;;;44.45;22.40;;;;;;;8.83;100.00;101806.22;5016698;28;20049;-57
2021/05/28 05:30:00;;;;;;;45.60;22.67;;;;;;;8.88;100.00;101816.47;5010946;28;20101;-58
2021/05/28 05:32:28;;;;;;;39.97;21.40;;;;;;;8.90;100.00;101812.72;5016725;28;20140;-58
2021/05/28 05:34:56;;;;;;;41.72;20.95;;;;;;;9.28;100.00;101816.63;5011743;28;20077;-57
2021/05/28 05:37:24;;;;;;;44.38;22.55;;;;;;;9.64;100.00;101825.13;5007710;28;20038;-57
2021/05/28 05:39:51;;;;;;;45.53;22.08;;;;;;;9.99;100.00;101821.22;5011301;28;20453;-55
2021/05/28 05:42:19;;;;;;;43.90;23.35;;;;;;;9.95;100.00;101824.28;5017468;28;20387;-59
2021/05/28 05:44:47;;;;;;;38.35;22.13;;;;;;;10.16;100.00;101819.72;5017872;28;20438;-60
2021/05/28 05:47:14;;;;;;;40.80;21.10;;;;;;;10.51;100.00;101834.44;5024735;28;20057;-58
2021/05/28 05:49:42;;;;;;;38.40;20.00;;;;;;;10.38;100.00;101823.19;5018603;28;20046;-58
2021/05/28 05:52:09;;;;;;;36.85;20.60;;;;;;;10.13;100.00;101824.47;5020311;28;20049;-58
2021/05/28 05:54:36;;;;;;;32.67;19.42;;;;;;;10.51;100.00;101826.44;5020472;28;20477;-58
2021/05/28 05:57:04;;;;;;;34.55;18.58;;;;;;;10.58;100.00;101833.91;5021847;28;20057;-58
2021/05/28 05:59:32;;;;;;;38.50;19.38;;;;;;;10.83;100.00;101837.84;5023265;28;20046;-58
2021/05/28 06:02:01;;;;;;;40.20;21.73;;;;;;;11.24;100.00;101827.88;5018864;28;20049;-58
2021/05/28 06:04:29;;;;;;;34.53;20.52;;;;;;;11.75;100.00;101836.47;5020326;28;20046;-58
2021/05/28 06:06:56;;;;;;;31.40;17.65;;;;;;;11.92;100.00;101840.19;5020811;28;20041;-59
2021/05/28 06:09:23;;;;;;;35.17;17.75;;;;;;;12.98;100.00;101838.88;5018013;28;20034;-58
2021/05/28 06:11:51;;;;;;;28.73;17.15;;;;;;;12.80;100.00;101838.88;5021451;28;20115;-58
2021/05/28 06:14:18;;;;;;;25.17;15.60;;;;;;;12.75;100.00;101837.50;5018087;28;20046;-58
2021/05/28 06:16:47;;;;;;;27.05;16.38;;;;;;;12.36;100.00;101837.78;5020755;28;20045;-58
2021/05/28 06:19:14;;;;;;;34.38;16.83;;;;;;;12.82;100.00;101843.09;5023247;28;20092;-58
2021/05/28 06:21:41;;;;;;;21.90;14.30;;;;;;;13.35;100.00;101844.06;5018791;28;20053;-58
2021/05/28 06:24:10;;;;;;;27.63;16.58;;;;;;;13.78;100.00;101847.72;5017325;28;20477;-58
2021/05/28 06:26:37;;;;;;;25.38;15.60;;;;;;;13.27;100.00;101847.50;5013690;28;20474;-58
2021/05/28 06:29:06;;;;;;;24.40;15.05;;;;;;;12.74;100.00;101851.91;5010023;28;20377;-59
2021/05/28 06:31:34;;;;;;;22.48;13.77;;;;;;;12.37;100.00;101839.44;5015265;28;20053;-58
2021/05/28 06:34:02;;;;;;;31.20;15.43;;;;;;;12.70;100.00;101852.34;5019294;28;20311;-58
2021/05/28 06:36:30;;;;;;;36.13;18.08;;;;;;;12.69;100.00;101851.50;5021825;28;20099;-58
2021/05/28 06:38:57;;;;;;;30.77;18.00;;;;;;;13.60;100.00;101849.63;5015220;28;20112;-58
2021/05/28 06:41:25;;;;;;;25.08;13.25;;;;;;;13.23;100.00;101846.13;5019707;28;20045;-58
2021/05/28 06:43:53;;;;;;;23.48;14.30;;;;;;;13.98;100.00;101852.84;5018747;28;20095;-58
2021/05/28 06:46:20;;;;;;;26.40;14.38;;;;;;;14.35;100.00;101851.66;5015653;28;20046;-58
2021/05/28 06:48:47;;;;;;;25.23;14.07;;;;;;;15.12;100.00;101856.03;5015684;28;20046;-58
2021/05/28 06:51:16;;;;;;;25.58;14.13;;;;;;;15.29;100.00;101860.38;5015570;28;20050;-59
2021/05/28 06:53:43;;;;;;;21.60;12.23;;;;;;;15.60;100.00;101856.16;5003771;28;20053;-59
2021/05/28 06:56:11;;;;;;;24.05;12.85;;;;;;;14.67;100.00;101855.47;5021990;28;20131;-58
2021/05/28 06:58:38;;;;;;;19.30;12.60;;;;;;;15.23;100.00;101855.69;5019244;28;20176;-58
2021/05/28 07:01:06;;;;;;;26.20;12.77;;;;;;;15.09;100.00;101854.50;5011842;28;20045;-58
2021/05/28 07:03:33;;;;;;;20.40;11.75;;;;;;;14.51;100.00;101850.03;5015387;28;20403;-58
2021/05/28 07:06:01;;;;;;;17.85;11.02;;;;;;;13.76;100.00;101863.16;5016839;28;20077;-57
2021/05/28 07:08:29;;;;;;;32.08;14.52;;;;;;;14.28;100.00;101856.84;5016438;28;20045;-58
2021/05/28 07:10:56;;;;;;;20.33;11.70;;;;;;;14.60;100.00;101865.16;5022134;28;20057;-58
2021/05/28 07:13:24;;;;;;;25.55;12.60;;;;;;;14.84;100.00;101864.41;5015307;28;20103;-58
2021/05/28 07:15:51;;;;;;;20.23;10.63;;;;;;;14.28;100.00;101869.44;5016147;28;20049;-58
2021/05/28 07:18:19;;;;;;;17.23;10.27;;;;;;;15.51;100.00;101858.03;5020250;28;20092;-58
2021/05/28 07:20:47;;;;;;;18.60;10.65;;;;;;;15.75;100.00;101856.28;5015713;28;20041;-58
2021/05/28 07:23:19;;;;;;;16.02;9.82;;;;;;;15.70;100.00;101851.41;5019438;28;20088;-57
2021/05/28 07:25:47;;;;;;;16.58;9.65;;;;;;;15.10;100.00;101858.88;5016475;28;20180;-57
2021/05/28 07:28:14;;;;;;;18.63;9.50;;;;;;;14.98;100.00;101855.69;5015142;28;20104;-58
2021/05/28 07:30:42;;;;;;;15.60;9.25;;;;;;;15.55;100.00;101855.81;5022034;28;20049;-58
2021/05/28 07:33:09;;;;;;;14.43;9.00;;;;;;;15.52;100.00;101854.31;5016021;28;20085;-58
2021/05/28 07:35:37;;;;;;;13.55;8.40;;;;;;;15.49;100.00;101858.19;5017893;28;20049;-57
2021/05/28 07:38:04;;;;;;;14.50;7.60;;;;;;;15.59;100.00;101862.53;5016522;28;20137;-57
2021/05/28 07:40:32;;;;;;;11.55;6.70;;;;;;;16.68;100.00;101860.13;5012007;28;20041;-57
2021/05/28 07:43:01;;;;;;;16.90;8.05;;;;;;;17.02;100.00;101856.22;5022208;28;20049;-57
2021/05/28 07:45:28;;;;;;;11.68;7.85;;;;;;;17.05;100.00;101858.53;5017702;28;20049;-57
2021/05/28 07:47:56;;;;;;;13.00;6.55;;;;;;;17.42;100.00;101846.06;5014452;28;20044;-57
2021/05/28 07:50:23;;;;;;;12.05;7.65;;;;;;;17.52;100.00;101854.75;5016648;28;20522;-57
2021/05/28 07:52:50;;;;;;;14.90;7.40;;;;;;;17.98;100.00;101852.97;5015307;28;20038;-57
2021/05/28 07:55:18;;;;;;;12.20;7.78;;;;;;;17.91;100.00;101852.03;5023808;28;20041;-57
2021/05/28 07:57:46;;;;;;;11.35;6.90;;;;;;;16.75;100.00;101844.06;5017824;28;20457;-58
2021/05/28 08:00:15;;;;;;;17.40;7.72;;;;;;;17.36;100.00;101858.44;5014840;28;20038;-57
2021/05/28 08:02:46;;;;;;;12.95;7.68;;;;;;;17.69;100.00;101857.28;5018966;28;20041;-57
2021/05/28 08:05:14;;;;;;;12.23;6.93;;;;;;;18.03;100.00;101855.91;5016498;28;20053;-57
2021/05/28 08:07:42;;;;;;;11.32;7.85;;;;;;;18.55;100.00;101859.47;5016808;28;20046;-57
2021/05/28 08:10:10;;;;;;;16.25;7.28;;;;;;;18.14;100.00;101841.09;5013995;28;20456;-57
2021/05/28 08:12:38;;;;;;;9.45;6.40;;;;;;;19.05;100.00;101849.63;5014319;28;20049;-58
2021/05/28 08:15:06;;;;;;;10.35;6.60;;;;;;;19.34;100.00;101839.63;5019603;28;20042;-57
2021/05/28 08:17:35;;;;;;;14.73;7.68;;;;;;;19.37;100.00;101841.13;5019270;28;20045;-57
2021/05/28 08:20:04;;;;;;;16.88;7.88;;;;;;;17.75;100.00;101848.44;5019849;28;20384;-57
2021/05/28 08:22:31;;;;;;;12.55;6.68;;;;;;;17.92;100.00;101840.19;5016949;28;20046;-58
2021/05/28 08:24:59;;;;;;;11.93;6.57;;;;;;;16.92;100.00;101844.84;5020273;28;20053;-57
2021/05/28 08:27:26;;;;;;;12.63;7.20;;;;;;;16.37;100.00;101831.31;5012374;28;20073;-57
2021/05/28 08:29:54;;;;;;;10.70;6.38;;;;;;;16.11;100.00;101835.16;5013564;28;20045;-57
2021/05/28 08:32:21;;;;;;;14.07;7.30;;;;;;;18.49;100.00;101827.78;5018285;28;20470;-57
2021/05/28 08:34:49;;;;;;;10.70;6.47;;;;;;;20.05;100.00;101826.97;5015295;28;20385;-58
2021/05/28 08:37:17;;;;;;;11.55;6.75;;;;;;;20.37;100.00;101827.28;5016871;28;20173;-57
2021/05/28 08:39:45;;;;;;;11.45;6.93;;;;;;;20.33;100.00;101821.44;5020110;28;20037;-57
2021/05/28 08:42:13;;;;;;;11.63;6.50;;;;;;;20.94;100.00;101828.69;5017005;28;20049;-58
2021/05/28 08:44:41;;;;;;;10.43;6.75;;;;;;;18.71;100.00;101834.03;5019810;28;20045;-58
2021/05/28 08:47:13;;;;;;;9.98;5.88;;;;;;;18.76;100.00;101835.13;5018884;28;20042;-57
2021/05/28 08:49:40;;;;;;;11.73;5.05;;;;;;;17.55;100.00;101829.25;5016602;28;20038;-57
2021/05/28 08:52:09;;;;;;;10.15;5.07;;;;;;;18.19;100.00;101830.56;5016349;28;20058;-57
2021/05/28 08:54:36;;;;;;;11.13;5.40;;;;;;;16.94;100.00;101827.44;5015513;28;20045;-58
2021/05/28 08:57:04;;;;;;;11.30;6.03;;;;;;;17.45;100.00;101829.53;5010331;28;20104;-56
2021/05/28 08:59:32;;;;;;;7.85;5.63;;;;;;;19.01;100.00;101825.81;5017899;28;20049;-57
2021/05/28 09:01:59;;;;;;;7.50;3.92;;;;;;;19.17;100.00;101822.84;5014669;28;20083;-56
2021/05/28 09:04:26;;;;;;;8.82;4.30;;;;;;;17.40;100.00;101820.31;5015834;28;20048;-56
2021/05/28 09:06:54;;;;;;;8.35;4.45;;;;;;;17.27;100.00;101819.06;5012710;28;20037;-56
2021/05/28 09:09:23;;;;;;;8.05;4.70;;;;;;;17.43;100.00;101809.97;5021850;28;20104;-56
2021/05/28 09:11:52;;;;;;;8.63;5.63;;;;;;;17.45;100.00;101816.03;5014501;28;20092;-56
2021/05/28 09:14:34;;;;;;;6.45;4.72;;;;;;;17.27;100.00;101812.84;5018124;28;20041;-56
2021/05/28 09:17:03;;;;;;;10.35;4.75;;;;;;;18.12;100.00;101808.84;5018917;28;20125;-57
2021/05/28 09:19:31;;;;;;;6.93;3.50;;;;;;;18.96;100.00;101803.94;5019361;28;20042;-57
2021/05/28 09:22:00;;;;;;;7.85;3.75;;;;;;;20.08;100.00;101804.88;5015026;28;20396;-57
2021/05/28 09:24:35;;;;;;;9.18;4.60;;;;;;;20.62;100.00;101809.38;5018120;28;20042;-57
2021/05/28 09:27:20;;;;;;;6.47;4.03;;;;;;;21.86;100.00;101814.38;5018719;28;20088;-56
2021/05/28 09:30:01;;;;;;;9.27;3.92;;;;;;;21.76;100.00;101808.53;5022659;28;20440;-57
2021/05/28 09:32:29;;;;;;;8.18;3.97;;;;;;;21.35;100.00;101807.78;5021622;28;20041;-57
2021/05/28 09:34:56;;;;;;;5.10;3.70;;;;;;;20.01;100.00;101807.53;5016604;28;20042;-57
2021/05/28 09:37:35;;;;;;;7.43;4.38;;;;;;;19.77;100.00;101804.28;5018905;28;20104;-57
2021/05/28 09:40:13;;;;;;;8.75;4.90;;;;;;;18.66;100.00;101809.47;5015859;28;20338;-57
2021/05/28 09:42:52;;;;;;;6.90;3.97;;;;;;;18.97;100.00;101800.16;5018670;28;20042;-57
2021/05/28 09:45:26;;;;;;;8.52;4.65;;;;;;;19.19;100.00;101804.53;5020487;28;20046;-57
2021/05/28 09:47:53;;;;;;;10.30;4.65;;;;;;;19.64;100.00;101800.66;5020608;28;20053;-58
2021/05/28 09:50:21;;;;;;;10.35;4.68;;;;;;;19.09;100.00;101801.31;5017743;28;20049;-57
2021/05/28 09:52:49;;;;;;;6.50;4.10;;;;;;;20.87;100.00;101789.00;5018227;28;21017;-57
2021/05/28 09:55:18;;;;;;;9.18;3.85;;;;;;;20.24;100.00;101782.81;5020369;28;20042;-57
2021/05/28 09:57:47;;;;;;;5.20;3.47;;;;;;;18.64;100.00;101776.34;5019318;28;20353;-57
2021/05/28 10:00:25;;;;;;;8.60;4.60;;;;;;;18.36;100.00;101772.53;5020909;28;20400;-57
2021/05/28 10:03:11;;;;;;;8.30;3.88;;;;;;;19.88;100.00;101770.38;5019099;28;20050;-57
2021/05/28 10:05:40;;;;;;;8.10;3.53;;;;;;;20.55;100.00;101764.31;5016416;28;21811;-58
2021/05/28 10:08:09;;;;;;;6.03;3.50;;;;;;;19.00;100.00;101770.03;5019543;28;20322;-56
2021/05/28 10:10:38;;;;;;;7.50;4.20;;;;;;;18.29;100.00;101773.50;5019258;28;20461;-57
2021/05/28 10:13:10;;;;;;;7.50;3.40;;;;;;;18.55;100.00;101772.91;5019963;28;20491;-57
2021/05/28 10:15:42;;;;;;;7.25;3.25;;;;;;;19.36;100.00;101772.56;5019613;28;20049;-58
2021/05/28 10:18:10;;;;;;;8.93;3.53;;;;;;;19.79;100.00;101774.31;5005755;28;20438;-57
2021/05/28 10:20:38;;;;;;;5.32;3.35;;;;;;;19.13;100.00;101775.53;5014047;28;20038;-57
2021/05/28 10:23:07;;;;;;;11.60;3.75;;;;;;;20.88;100.00;101769.81;5011226;28;20046;-57
2021/05/28 10:25:34;;;;;;;6.50;3.05;;;;;;;19.79;100.00;101755.34;5019099;28;20076;-57
2021/05/28 10:28:07;;;;;;;8.73;3.60;;;;;;;19.74;100.00;101763.19;5015925;28;20053;-57
2021/05/28 10:30:37;;;;;;;7.40;3.72;;;;;;;20.48;100.00;101756.16;5017772;28;20045;-57
2021/05/28 10:33:20;;;;;;;5.05;3.35;;;;;;;19.54;100.00;101758.50;5018835;28;20080;-57
2021/05/28 10:35:49;;;;;;;5.20;3.72;;;;;;;20.63;100.00;101758.69;5021682;28;20508;-57
2021/05/28 10:38:36;;;;;;;6.75;3.25;;;;;;;21.96;100.00;101760.38;5018308;28;20041;-58
2021/05/28 10:41:39;;;;;;;9.02;4.75;;;;;;;21.54;100.00;101746.31;5018401;28;20046;-59
2021/05/28 10:44:15;;;;;;;16.80;5.95;;;;;;;20.79;100.00;101741.19;5012616;28;20049;-58
2021/05/28 10:47:00;;;;;;;14.65;4.15;;;;;;;20.49;100.00;101749.69;5019615;28;20107;-58
2021/05/28 10:49:43;;;;;;;7.57;4.85;;;;;;;21.29;100.00;101748.84;5018831;28;20496;-57
2021/05/28 10:52:12;;;;;;;6.32;3.85;;;;;;;20.71;100.00;101742.25;5016989;28;20088;-57
2021/05/28 10:54:42;;;;;;;9.05;4.45;;;;;;;20.45;100.00;101749.25;5020465;28;20041;-57
2021/05/28 10:57:22;;;;;;;8.85;5.55;;;;;;;20.20;100.00;101740.88;5019038;28;20049;-56
2021/05/28 10:59:53;;;;;;;6.43;3.25;;;;;;;20.03;100.00;101734.16;5015931;28;20037;-56
2021/05/28 11:02:46;;;;;;;6.70;3.75;;;;;;;20.27;100.00;101733.59;5014427;28;20045;-57
2021/05/28 11:05:17;;;;;;;8.70;4.53;;;;;;;20.86;100.00;101724.91;5017802;28;20041;-56
2021/05/28 11:07:47;;;;;;;7.50;4.25;;;;;;;21.11;100.00;101735.94;5019890;28;20247;-56
2021/05/28 11:10:24;;;;;;;6.18;3.47;;;;;;;21.09;100.00;101738.03;5013068;28;20046;-56
2021/05/28 11:12:52;;;;;;;5.22;3.17;;;;;;;21.82;100.00;101742.47;5020341;28;20360;-56
2021/05/28 11:15:27;;;;;;;10.73;3.97;;;;;;;21.22;100.00;101731.75;5017260;28;20042;-57
2021/05/28 11:17:58;;;;;;;8.55;3.85;;;;;;;20.85;100.00;101732.19;5015401;28;20042;-57